Time;durP1;ratioP1;P1;durP2;ratioP2;P2;SDS_P1;SDS_P2;PMS_P1;PMS_P2;Temp;Humidity;BMP_temperature;BMP_pressure;BME280_temperature;BME280_humidity;BME280_pressure;Samples;Min_cycle;Max_cycle;Signal;HPM_P1;HPM_P2
2022/04/07 00:01:29;;;;;;;9.88;3.88;;;9.40;99.90;;;;;;5005371;28;20048;-87
2022/04/07 00:03:55;;;;;;;12.57;4.13;;;9.40;99.90;;;;;;5016459;28;20110;-88
2022/04/07 00:06:21;;;;;;;13.63;4.00;;;9.40;99.90;;;;;;4996275;28;20033;-88
2022/04/07 00:08:46;;;;;;;12.57;4.20;;;9.40;99.90;;;;;;5001294;28;20041;-87
2022/04/07 00:11:12;;;;;;;10.95;3.72;;;9.40;99.90;;;;;;5015843;28;20044;-87
2022/04/07 00:13:39;;;;;;;9.93;3.65;;;9.40;99.90;;;;;;5025167;28;20041;-91
2022/04/07 00:16:06;;;;;;;12.10;3.72;;;9.40;99.90;;;;;;5007689;28;20052;-90
2022/04/07 00:18:32;;;;;;;12.48;4.05;;;9.40;99.90;;;;;;5021721;28;20116;-88
2022/04/07 00:20:59;;;;;;;10.75;3.35;;;9.40;99.90;;;;;;5016837;28;20067;-87
2022/04/07 00:23:25;;;;;;;13.23;3.97;;;9.40;99.90;;;;;;5013230;28;20136;-87
2022/04/07 00:25:51;;;;;;;12.85;3.72;;;9.30;99.90;;;;;;5031847;28;20735;-88
2022/04/07 00:28:17;;;;;;;12.63;3.30;;;9.30;99.90;;;;;;5032268;28;20040;-85
2022/04/07 00:30:43;;;;;;;10.25;3.33;;;9.30;99.90;;;;;;5008141;28;20045;-89
2022/04/07 00:33:10;;;;;;;11.73;2.92;;;9.30;99.90;;;;;;4996623;28;20124;-86
2022/04/07 00:35:37;;;;;;;9.48;2.50;;;9.20;99.90;;;;;;5015422;28;20051;-88
2022/04/07 00:38:03;;;;;;;11.02;2.90;;;9.20;99.90;;;;;;5031766;28;20068;-87
2022/04/07 00:40:30;;;;;;;10.10;2.50;;;9.20;99.90;;;;;;5015747;28;20033;-88
2022/04/07 00:42:56;;;;;;;8.68;2.25;;;9.10;99.90;;;;;;5014492;28;20030;-87
2022/04/07 00:45:23;;;;;;;9.20;2.35;;;9.10;99.90;;;;;;4983229;28;20098;-86
2022/04/07 00:47:49;;;;;;;8.95;2.45;;;9.10;99.90;;;;;;5029566;28;20421;-90
2022/04/07 00:50:16;;;;;;;9.85;2.33;;;9.10;99.90;;;;;;5030158;28;20113;-88
2022/04/07 00:52:49;;;;;;;8.43;2.50;;;9.10;99.90;;;;;;5000849;28;20515;-88
2022/04/07 00:55:15;;;;;;;12.85;2.35;;;9.10;99.90;;;;;;5034753;28;20080;-89
2022/04/07 00:57:41;;;;;;;11.23;2.33;;;10.60;99.90;;;;;;5010682;28;20041;-88
2022/04/07 01:00:10;;;;;;;9.65;2.53;;;9.30;99.90;;;;;;5032113;28;20566;-87
2022/04/07 01:02:36;;;;;;;9.45;2.60;;;9.10;99.90;;;;;;5009297;28;20056;-87
2022/04/07 01:05:04;;;;;;;11.85;2.65;;;9.10;99.90;;;;;;5014670;28;20080;-86
2022/04/07 01:07:32;;;;;;;9.15;2.25;;;9.20;99.90;;;;;;4981804;28;20048;-87
2022/04/07 01:09:59;;;;;;;10.68;2.90;;;9.20;99.90;;;;;;5031983;28;20053;-87
2022/04/07 01:12:25;;;;;;;12.10;2.70;;;9.20;99.90;;;;;;5015660;28;20037;-88
2022/04/07 01:15:07;;;;;;;11.23;3.08;;;9.20;99.90;;;;;;5032115;28;20045;-86
2022/04/07 01:17:38;;;;;;;10.93;3.38;;;9.20;99.90;;;;;;5004981;28;20056;-88
2022/04/07 01:20:05;;;;;;;11.32;3.08;;;9.10;99.90;;;;;;5025811;28;20045;-87
2022/04/07 01:22:34;;;;;;;12.77;3.15;;;9.20;99.90;;;;;;5020882;28;20057;-88
2022/04/07 01:25:00;;;;;;;13.05;3.17;;;9.20;99.90;;;;;;5010613;28;20048;-89
2022/04/07 01:27:27;;;;;;;11.23;2.88;;;9.10;99.90;;;;;;5006795;28;20094;-88
2022/04/07 01:29:53;;;;;;;12.27;3.08;;;9.10;99.90;;;;;;5022672;28;20621;-87
2022/04/07 01:32:39;;;;;;;15.15;3.20;;;9.10;99.90;;;;;;5026471;28;20518;-88
2022/04/07 01:35:06;;;;;;;12.02;3.00;;;9.10;99.90;;;;;;5015632;28;20048;-89
2022/04/07 01:37:32;;;;;;;11.18;2.50;;;9.10;99.90;;;;;;5014835;28;20045;-89
2022/04/07 01:40:00;;;;;;;12.55;2.60;;;9.10;99.90;;;;;;4999114;28;20107;-89
2022/04/07 01:42:26;;;;;;;12.15;2.60;;;9.00;99.90;;;;;;4998903;28;20041;-89
2022/04/07 01:44:54;;;;;;;15.63;3.60;;;9.00;99.90;;;;;;4994085;28;20511;-88
2022/04/07 01:47:21;;;;;;;13.70;3.30;;;8.90;99.90;;;;;;5014482;28;20041;-88
2022/04/07 01:50:02;;;;;;;10.18;2.88;;;8.90;99.90;;;;;;5015471;28;20040;-87
2022/04/07 01:52:29;;;;;;;10.32;3.13;;;8.90;99.90;;;;;;5014915;28;20347;-87
2022/04/07 01:54:57;;;;;;;11.38;3.40;;;8.80;99.90;;;;;;4997674;28;20526;-88
2022/04/07 01:57:23;;;;;;;13.27;3.50;;;8.80;99.90;;;;;;5023768;28;20081;-87
2022/04/07 01:59:53;;;;;;;12.00;3.30;;;8.80;99.90;;;;;;5002159;28;20038;-88
2022/04/07 02:02:21;;;;;;;10.65;3.08;;;8.80;99.90;;;;;;5014472;28;20135;-86
2022/04/07 02:04:52;;;;;;;12.90;3.38;;;8.90;99.90;;;;;;5005388;28;20041;-87
2022/04/07 02:07:18;;;;;;;11.80;3.42;;;8.80;99.90;;;;;;4995672;28;20037;-86
2022/04/07 02:09:44;;;;;;;10.63;3.38;;;8.80;99.90;;;;;;4998871;28;20041;-88
2022/04/07 02:12:10;;;;;;;15.85;3.70;;;8.80;99.90;;;;;;5014846;28;20033;-87
2022/04/07 02:14:35;;;;;;;14.27;3.63;;;8.80;99.90;;;;;;4998426;28;20042;-88
2022/04/07 02:17:01;;;;;;;14.38;3.65;;;9.60;99.90;;;;;;5001649;28;20087;-86
2022/04/07 02:19:28;;;;;;;13.43;3.33;;;8.80;99.90;;;;;;5018060;28;20048;-86
2022/04/07 02:21:53;;;;;;;16.60;4.22;;;9.10;99.90;;;;;;5014027;28;20039;-87
2022/04/07 02:24:19;;;;;;;17.20;3.67;;;8.80;99.90;;;;;;4996924;28;20037;-87
2022/04/07 02:26:45;;;;;;;16.33;3.70;;;9.10;99.90;;;;;;4999878;28;20229;-87
2022/04/07 02:29:11;;;;;;;14.98;3.83;;;8.80;99.90;;;;;;4973656;28;20044;-88
2022/04/07 02:31:36;;;;;;;14.95;3.90;;;8.80;99.90;;;;;;5009367;28;20263;-89
2022/04/07 02:34:02;;;;;;;14.25;4.00;;;8.80;99.90;;;;;;5003855;28;20557;-88
2022/04/07 02:36:28;;;;;;;17.42;3.90;;;8.90;99.90;;;;;;5001051;28;20047;-88
2022/04/07 02:38:54;;;;;;;17.98;4.30;;;9.30;99.90;;;;;;4981865;28;20041;-87
2022/04/07 02:41:19;;;;;;;13.48;4.10;;;8.90;99.90;;;;;;5004185;28;20119;-87
2022/04/07 02:43:46;;;;;;;15.65;4.10;;;8.90;99.90;;;;;;4997721;28;20119;-87
2022/04/07 02:46:11;;;;;;;15.32;3.58;;;8.90;99.90;;;;;;4986888;28;20034;-88
2022/04/07 02:48:37;;;;;;;14.75;3.45;;;9.00;99.90;;;;;;5025687;28;20036;-88
2022/04/07 02:51:03;;;;;;;16.27;3.70;;;9.60;99.90;;;;;;4996745;28;20538;-88
2022/04/07 02:53:29;;;;;;;12.73;3.03;;;9.00;99.90;;;;;;4977583;28;20029;-88
2022/04/07 02:55:55;;;;;;;18.13;4.43;;;9.00;99.90;;;;;;4997376;28;20039;-88
2022/04/07 02:58:20;;;;;;;14.85;4.25;;;10.30;99.90;;;;;;5032036;28;20041;-88
2022/04/07 03:00:46;;;;;;;17.30;4.30;;;9.00;99.90;;;;;;5012238;28;20037;-87
2022/04/07 03:03:12;;;;;;;16.40;4.60;;;9.00;99.90;;;;;;5016901;28;20039;-87
2022/04/07 03:05:37;;;;;;;16.58;4.20;;;9.10;99.90;;;;;;4985080;28;20033;-89
2022/04/07 03:08:04;;;;;;;12.65;3.95;;;9.10;99.90;;;;;;5009304;28;20483;-88
2022/04/07 03:10:29;;;;;;;15.45;4.93;;;9.00;99.90;;;;;;5015472;28;20069;-86
2022/04/07 03:12:55;;;;;;;17.90;4.03;;;9.00;99.90;;;;;;5002876;28;20068;-88
2022/04/07 03:15:21;;;;;;;15.60;4.47;;;9.00;99.90;;;;;;5000273;28;20044;-88
2022/04/07 03:17:46;;;;;;;15.90;4.40;;;9.00;99.90;;;;;;5022890;28;20514;-88
2022/04/07 03:20:12;;;;;;;16.13;4.68;;;9.00;99.90;;;;;;4974264;28;20049;-87
2022/04/07 03:22:38;;;;;;;14.35;4.32;;;9.10;99.90;;;;;;4979800;28;20120;-87
2022/04/07 03:25:04;;;;;;;15.35;4.72;;;9.00;99.90;;;;;;5000355;28;20037;-88
2022/04/07 03:27:30;;;;;;;14.10;3.97;;;9.00;99.90;;;;;;5004648;28;20410;-88
2022/04/07 03:29:55;;;;;;;17.20;4.40;;;8.90;99.90;;;;;;5000841;28;20033;-87
2022/04/07 03:32:21;;;;;;;17.85;4.55;;;9.00;99.90;;;;;;4994391;28;20045;-88
2022/04/07 03:34:47;;;;;;;17.90;4.30;;;8.80;99.90;;;;;;5013177;28;20041;-89
2022/04/07 03:37:14;;;;;;;14.05;3.83;;;9.40;99.90;;;;;;5009636;28;20037;-89
2022/04/07 03:39:40;;;;;;;14.20;4.10;;;9.00;99.90;;;;;;5024990;28;20061;-89
2022/04/07 03:42:06;;;;;;;13.48;3.70;;;9.70;99.90;;;;;;4984519;28;20044;-88
2022/04/07 03:44:32;;;;;;;12.93;3.83;;;9.00;99.90;;;;;;5014770;28;20048;-87
2022/04/07 03:46:58;;;;;;;12.55;3.97;;;9.00;99.90;;;;;;4994636;28;20070;-89
2022/04/07 03:49:24;;;;;;;13.95;3.80;;;9.20;99.90;;;;;;5008572;28;20109;-88
2022/04/07 03:51:50;;;;;;;12.85;3.40;;;9.80;99.90;;;;;;4988287;28;20108;-88
2022/04/07 03:54:17;;;;;;;15.80;3.80;;;9.00;99.90;;;;;;4988058;28;20059;-87
2022/04/07 03:56:43;;;;;;;13.70;3.85;;;9.00;99.90;;;;;;5022665;28;20041;-86
2022/04/07 03:59:09;;;;;;;12.25;3.03;;;9.00;99.90;;;;;;5030738;28;20591;-88
2022/04/07 04:01:35;;;;;;;14.85;3.70;;;9.00;99.90;;;;;;5032028;28;20041;-88
2022/04/07 04:04:03;;;;;;;13.32;3.28;;;9.10;99.90;;;;;;5014323;28;20033;-88
2022/04/07 04:06:29;;;;;;;14.63;3.40;;;9.30;99.90;;;;;;5000258;28;20188;-89
2022/04/07 04:08:55;;;;;;;14.88;3.60;;;9.40;99.90;;;;;;4995739;28;20638;-89
2022/04/07 04:11:20;;;;;;;12.40;3.50;;;9.10;99.90;;;;;;5005679;28;20037;-88
2022/04/07 04:13:46;;;;;;;15.07;3.30;;;9.00;99.90;;;;;;5000062;28;20087;-87
2022/04/07 04:16:15;;;;;;;17.48;3.88;;;9.00;99.90;;;;;;4999936;28;20573;-87
2022/04/07 04:18:44;;;;;;;14.35;3.47;;;9.10;99.90;;;;;;5014560;28;20140;-90
2022/04/07 04:21:10;;;;;;;15.60;3.30;;;9.10;99.90;;;;;;5021591;28;20076;-87
2022/04/07 04:23:36;;;;;;;16.55;4.32;;;9.00;99.90;;;;;;5011180;28;20080;-89
2022/04/07 04:26:04;;;;;;;14.82;3.38;;;9.00;99.90;;;;;;4964297;28;20044;-89
2022/04/07 04:28:29;;;;;;;16.25;3.92;;;9.00;99.90;;;;;;4991795;28;20545;-89
2022/04/07 04:30:55;;;;;;;17.10;3.42;;;9.00;99.90;;;;;;4999278;28;20080;-87
2022/04/07 04:33:21;;;;;;;15.90;3.55;;;9.00;99.90;;;;;;5015879;28;20039;-88
2022/04/07 04:35:46;;;;;;;15.77;3.70;;;8.90;99.90;;;;;;5031490;28;20041;-88
2022/04/07 04:38:13;;;;;;;17.77;3.60;;;8.90;99.90;;;;;;5031576;28;20049;-89
2022/04/07 04:40:38;;;;;;;17.77;3.80;;;8.90;99.90;;;;;;4997968;28;20029;-88
2022/04/07 04:43:04;;;;;;;18.95;3.92;;;8.80;99.90;;;;;;4990117;28;20387;-87
2022/04/07 04:45:30;;;;;;;15.40;3.33;;;8.80;99.90;;;;;;5008239;28;20033;-87
2022/04/07 04:47:56;;;;;;;17.05;3.85;;;8.80;99.90;;;;;;4999793;28;20040;-88
2022/04/07 04:50:21;;;;;;;17.63;3.92;;;8.80;99.90;;;;;;4990653;28;20037;-87
2022/04/07 04:52:47;;;;;;;16.42;3.78;;;8.80;99.90;;;;;;5006877;28;20029;-87
2022/04/07 04:55:13;;;;;;;16.48;3.20;;;8.80;99.90;;;;;;5009301;28;20040;-88
2022/04/07 04:57:39;;;;;;;15.30;3.67;;;8.80;99.90;;;;;;4999689;28;20401;-88
2022/04/07 05:00:05;;;;;;;14.40;3.33;;;8.80;99.90;;;;;;5017643;28;20592;-89
2022/04/07 05:02:31;;;;;;;17.33;3.30;;;8.80;99.90;;;;;;4980203;28;20041;-88
2022/04/07 05:04:57;;;;;;;16.80;3.55;;;8.80;99.90;;;;;;5018765;28;20051;-87
2022/04/07 05:07:22;;;;;;;15.77;3.58;;;8.80;99.90;;;;;;4998483;28;20033;-87
2022/04/07 05:09:48;;;;;;;17.80;3.97;;;8.90;99.90;;;;;;4994576;28;20043;-88
2022/04/07 05:12:14;;;;;;;17.52;4.28;;;8.90;99.90;;;;;;5014643;28;20037;-86
2022/04/07 05:14:40;;;;;;;15.27;3.85;;;8.80;99.90;;;;;;4997012;28;20041;-87
2022/04/07 05:17:07;;;;;;;15.25;3.45;;;8.80;99.90;;;;;;4998394;28;20064;-86
2022/04/07 05:19:32;;;;;;;13.13;3.53;;;9.40;99.90;;;;;;4991885;28;20084;-87
2022/04/07 05:21:58;;;;;;;17.58;3.92;;;8.80;99.90;;;;;;5004018;28;20037;-86
2022/04/07 05:24:24;;;;;;;15.10;3.28;;;8.80;99.90;;;;;;4994677;28;20108;-90
2022/04/07 05:26:49;;;;;;;14.57;3.15;;;8.70;99.90;;;;;;5008506;28;20434;-87
2022/04/07 05:29:15;;;;;;;13.00;2.90;;;9.20;99.90;;;;;;4990294;28;20040;-85
2022/04/07 05:31:41;;;;;;;13.95;2.83;;;8.60;99.90;;;;;;4996879;28;20045;-87
2022/04/07 05:34:07;;;;;;;13.23;3.35;;;9.40;99.90;;;;;;4997920;28;20124;-88
2022/04/07 05:36:32;;;;;;;10.18;2.85;;;8.40;99.90;;;;;;4989351;28;20040;-85
2022/04/07 05:38:58;;;;;;;9.70;1.88;;;8.30;99.90;;;;;;5015126;28;20037;-85
2022/04/07 05:41:24;;;;;;;9.68;1.80;;;8.10;99.90;;;;;;5006417;28;20041;-84
2022/04/07 05:43:50;;;;;;;7.22;1.90;;;7.90;99.90;;;;;;4997293;28;20537;-85
2022/04/07 05:46:15;;;;;;;7.35;1.60;;;7.80;99.90;;;;;;4984395;28;20102;-85
2022/04/07 05:48:41;;;;;;;8.98;1.90;;;7.50;99.90;;;;;;5024251;28;20604;-84
2022/04/07 05:51:07;;;;;;;9.02;1.73;;;7.60;99.90;;;;;;5026624;28;20044;-85
2022/04/07 05:53:32;;;;;;;10.75;2.13;;;7.20;99.90;;;;;;4985347;28;20152;-85
2022/04/07 05:55:58;;;;;;;9.77;2.15;;;7.20;99.90;;;;;;4991646;28;20037;-85
2022/04/07 05:58:24;;;;;;;9.68;2.45;;;7.10;99.90;;;;;;5001332;28;20037;-86
2022/04/07 06:00:51;;;;;;;10.07;2.40;;;7.70;99.90;;;;;;5024810;28;20037;-86
2022/04/07 06:03:16;;;;;;;10.07;2.17;;;7.00;99.90;;;;;;5031411;28;20037;-85
2022/04/07 06:05:42;;;;;;;8.80;2.33;;;7.20;99.90;;;;;;5014944;28;20044;-85
2022/04/07 06:08:08;;;;;;;8.13;1.60;;;7.00;99.90;;;;;;5017798;28;20098;-85
2022/04/07 06:10:34;;;;;;;10.38;2.00;;;6.90;99.90;;;;;;5002054;28;20068;-86
2022/04/07 06:13:00;;;;;;;10.02;2.05;;;6.90;99.90;;;;;;5034654;28;20063;-85
2022/04/07 06:15:26;;;;;;;7.75;1.75;;;7.50;99.90;;;;;;5035033;28;20577;-86
2022/04/07 06:17:52;;;;;;;8.38;2.25;;;6.80;99.90;;;;;;5001539;28;20060;-86
2022/04/07 06:20:18;;;;;;;10.77;1.88;;;7.60;99.90;;;;;;5007830;28;20037;-85
2022/04/07 06:22:45;;;;;;;8.07;2.10;;;6.80;99.90;;;;;;5020916;28;20063;-84
2022/04/07 06:25:11;;;;;;;8.07;1.90;;;6.70;99.90;;;;;;4992825;28;20545;-85
2022/04/07 06:27:39;;;;;;;10.20;2.40;;;6.70;99.90;;;;;;4997803;28;20041;-85
2022/04/07 06:30:07;;;;;;;9.63;1.60;;;6.60;99.90;;;;;;4985171;28;20116;-85
2022/04/07 06:32:33;;;;;;;6.95;1.58;;;6.50;99.90;;;;;;5002564;28;20108;-86
2022/04/07 06:34:59;;;;;;;11.35;1.80;;;6.50;99.90;;;;;;5007377;28;20071;-86
2022/04/07 06:37:25;;;;;;;6.75;1.40;;;6.40;99.90;;;;;;5003679;28;20482;-86
2022/04/07 06:39:57;;;;;;;6.35;1.48;;;6.80;99.90;;;;;;5014347;28;20112;-86
2022/04/07 06:42:22;;;;;;;6.20;1.60;;;6.30;99.90;;;;;;4997992;28;20095;-85
2022/04/07 06:44:50;;;;;;;7.38;1.70;;;6.30;99.90;;;;;;4997795;28;20485;-85
2022/04/07 06:47:16;;;;;;;6.38;1.50;;;6.90;99.90;;;;;;4989953;28;20041;-86
2022/04/07 06:49:42;;;;;;;6.47;1.85;;;6.20;99.90;;;;;;5010262;28;20044;-86
2022/04/07 06:52:08;;;;;;;7.80;1.58;;;8.00;99.90;;;;;;5001331;28;20037;-86
2022/04/07 06:54:33;;;;;;;6.03;1.48;;;6.20;99.90;;;;;;5001265;28;20041;-85
2022/04/07 06:56:59;;;;;;;4.53;1.60;;;6.20;99.90;;;;;;5026601;28;20123;-87
2022/04/07 06:59:25;;;;;;;5.68;1.50;;;6.20;99.90;;;;;;4999142;28;20119;-86
2022/04/07 07:01:50;;;;;;;6.88;1.77;;;6.30;99.90;;;;;;5001865;28;20059;-87
2022/04/07 07:04:16;;;;;;;5.68;1.50;;;7.60;99.90;;;;;;4998037;28;20048;-86
2022/04/07 07:06:42;;;;;;;5.13;1.52;;;6.30;99.90;;;;;;4984868;28;20120;-86
2022/04/07 07:09:10;;;;;;;6.65;1.48;;;6.30;99.90;;;;;;5001000;28;20064;-87
2022/04/07 07:11:35;;;;;;;5.40;1.40;;;6.30;99.90;;;;;;4994578;28;20040;-86
2022/04/07 07:14:01;;;;;;;4.43;1.42;;;6.80;99.90;;;;;;4983885;28;20048;-86
2022/04/07 07:16:27;;;;;;;3.88;1.25;;;6.30;99.90;;;;;;5016907;28;20045;-86
2022/04/07 07:18:53;;;;;;;4.75;1.40;;;6.60;99.90;;;;;;4999304;28;20044;-87
2022/04/07 07:21:18;;;;;;;5.10;1.50;;;6.30;99.90;;;;;;5000164;28;20056;-87
2022/04/07 07:23:44;;;;;;;4.60;1.40;;;6.30;99.90;;;;;;5000291;28;20099;-86
2022/04/07 07:26:11;;;;;;;4.50;1.50;;;6.30;99.90;;;;;;4972690;28;20036;-86
2022/04/07 07:28:37;;;;;;;6.43;1.33;;;6.30;99.90;;;;;;5016789;28;20041;-86
2022/04/07 07:31:03;;;;;;;6.50;1.60;;;6.40;99.90;;;;;;5016554;28;20094;-87
2022/04/07 07:33:29;;;;;;;6.40;1.50;;;6.40;99.90;;;;;;5000544;28;20041;-87
2022/04/07 07:35:55;;;;;;;5.30;1.55;;;6.40;99.90;;;;;;5009678;28;20033;-87
2022/04/07 07:38:21;;;;;;;6.57;1.40;;;6.40;99.90;;;;;;5013604;28;20033;-88
2022/04/07 07:40:47;;;;;;;5.57;1.40;;;6.40;99.90;;;;;;5013689;28;20065;-88
2022/04/07 07:43:13;;;;;;;6.10;1.40;;;6.40;99.90;;;;;;5015026;28;20533;-88
2022/04/07 07:45:39;;;;;;;3.97;1.20;;;7.20;99.90;;;;;;4984201;28;20064;-87
2022/04/07 07:48:04;;;;;;;5.80;1.40;;;6.50;99.90;;;;;;4999946;28;20037;-87
2022/04/07 07:50:30;;;;;;;4.75;1.35;;;6.50;99.90;;;;;;4987147;28;20041;-87
2022/04/07 07:52:56;;;;;;;5.95;1.40;;;6.50;99.90;;;;;;5013322;28;20058;-87
2022/04/07 07:55:22;;;;;;;5.38;1.63;;;6.60;99.90;;;;;;5016705;28;20451;-86
2022/04/07 07:57:48;;;;;;;3.63;0.93;;;6.60;99.90;;;;;;5016599;28;20166;-87
2022/04/07 08:00:16;;;;;;;6.10;1.35;;;6.60;99.90;;;;;;4998496;28;20048;-88
2022/04/07 08:02:43;;;;;;;5.40;1.20;;;6.70;99.90;;;;;;5033000;28;20128;-88
2022/04/07 08:05:08;;;;;;;7.43;1.48;;;6.70;99.90;;;;;;5032696;28;20583;-86
2022/04/07 08:07:41;;;;;;;3.60;1.33;;;6.70;99.90;;;;;;4991215;28;20060;-88
2022/04/07 08:10:09;;;;;;;5.22;1.38;;;7.40;99.90;;;;;;5016243;28;20451;-87
2022/04/07 08:12:35;;;;;;;8.25;1.50;;;6.80;99.90;;;;;;5009509;28;20036;-87
2022/04/07 08:15:01;;;;;;;5.43;1.25;;;6.80;99.90;;;;;;5000134;28;20044;-87
2022/04/07 08:17:28;;;;;;;6.15;1.20;;;7.00;99.90;;;;;;5015993;28;20060;-87
2022/04/07 08:19:53;;;;;;;4.15;1.30;;;7.00;99.90;;;;;;5012856;28;20130;-88
2022/04/07 08:22:19;;;;;;;4.05;1.25;;;7.00;99.90;;;;;;4980584;28;20077;-86
2022/04/07 08:24:45;;;;;;;7.75;1.48;;;7.00;99.90;;;;;;5014569;28;20034;-86
2022/04/07 08:27:12;;;;;;;5.05;1.55;;;7.10;99.90;;;;;;4986999;28;20083;-88
2022/04/07 08:29:39;;;;;;;5.05;1.40;;;7.90;99.90;;;;;;4996092;28;20056;-87
2022/04/07 08:32:05;;;;;;;6.22;1.58;;;7.30;99.90;;;;;;5028885;28;20049;-86
2022/04/07 08:34:31;;;;;;;5.80;1.50;;;7.40;99.90;;;;;;5028708;28;20045;-87
2022/04/07 08:36:57;;;;;;;6.72;1.60;;;7.60;99.90;;;;;;4995306;28;20072;-87
2022/04/07 08:39:23;;;;;;;7.90;1.75;;;7.80;99.90;;;;;;5012782;28;20046;-87
2022/04/07 08:41:50;;;;;;;10.48;2.30;;;8.70;99.90;;;;;;5012765;28;20059;-86
2022/04/07 08:44:17;;;;;;;7.20;1.60;;;8.10;99.90;;;;;;5012285;28;20065;-86
2022/04/07 08:46:53;;;;;;;7.60;1.63;;;8.40;99.90;;;;;;5025003;28;20103;-87
2022/04/07 08:49:22;;;;;;;8.13;1.50;;;8.30;99.90;;;;;;5010415;28;20045;-87
2022/04/07 08:51:49;;;;;;;7.70;2.08;;;9.50;99.90;;;;;;5012438;28;20053;-88
2022/04/07 08:54:15;;;;;;;9.38;1.55;;;8.60;99.90;;;;;;5019118;28;20099;-86
2022/04/07 08:56:41;;;;;;;8.25;1.52;;;8.70;99.90;;;;;;4995920;28;20041;-87
2022/04/07 08:59:07;;;;;;;7.57;1.50;;;8.80;99.90;;;;;;4977252;28;20041;-88
2022/04/07 09:01:33;;;;;;;7.47;2.00;;;8.90;99.90;;;;;;5010344;28;20524;-87
2022/04/07 09:03:58;;;;;;;8.95;1.75;;;9.20;99.90;;;;;;5028555;28;20125;-87
2022/04/07 09:06:25;;;;;;;7.72;1.60;;;9.20;99.90;;;;;;5022497;28;20045;-87
2022/04/07 09:08:51;;;;;;;9.13;2.00;;;10.20;99.90;;;;;;4992995;28;20042;-86
2022/04/07 09:11:19;;;;;;;8.02;1.85;;;9.50;99.90;;;;;;4976135;28;20050;-87
2022/04/07 09:13:45;;;;;;;7.45;1.75;;;9.60;99.90;;;;;;5023629;28;20153;-86
2022/04/07 09:16:13;;;;;;;9.30;1.75;;;9.60;99.90;;;;;;5009492;28;20053;-87
2022/04/07 09:18:44;;;;;;;7.57;2.25;;;9.70;99.90;;;;;;4991965;28;20053;-86
2022/04/07 09:21:23;;;;;;;9.55;2.58;;;9.60;99.90;;;;;;4992997;28;20049;-88
2022/04/07 09:23:49;;;;;;;9.43;1.90;;;9.60;99.90;;;;;;4996186;28;20045;-85
2022/04/07 09:26:16;;;;;;;9.68;1.90;;;9.60;99.90;;;;;;4979110;28;20041;-87
2022/04/07 09:28:42;;;;;;;10.18;1.98;;;9.50;99.90;;;;;;4995398;28;20560;-88
2022/04/07 09:31:13;;;;;;;8.55;2.10;;;9.60;99.90;;;;;;4994984;28;20037;-86
2022/04/07 09:33:39;;;;;;;7.05;1.65;;;9.70;99.90;;;;;;5011665;28;20077;-88
2022/04/07 09:36:19;;;;;;;7.38;1.75;;;9.80;99.90;;;;;;4995215;28;20130;-88
2022/04/07 09:38:49;;;;;;;9.57;1.80;;;10.00;99.90;;;;;;4995880;28;20064;-88
2022/04/07 09:41:15;;;;;;;9.73;2.20;;;10.20;99.90;;;;;;4980237;28;20157;-88
2022/04/07 09:43:54;;;;;;;8.77;2.10;;;10.20;99.90;;;;;;4983321;28;20069;-87
2022/04/07 09:46:21;;;;;;;12.35;2.10;;;10.20;99.90;;;;;;4998591;28;20103;-87
2022/04/07 09:49:12;;;;;;;11.65;2.67;;;10.10;99.90;;;;;;4998946;28;20384;-86
2022/04/07 09:51:47;;;;;;;12.23;2.63;;;10.20;99.90;;;;;;5005828;28;20494;-86
2022/04/07 09:54:16;;;;;;;9.23;1.80;;;9.90;99.90;;;;;;4983169;28;20037;-88
2022/04/07 09:56:44;;;;;;;8.27;1.77;;;9.80;99.90;;;;;;4998939;28;20048;-86
2022/04/07 09:59:11;;;;;;;10.70;2.15;;;9.80;99.90;;;;;;4999090;28;20068;-86
2022/04/07 10:01:40;;;;;;;10.63;2.20;;;10.00;99.90;;;;;;4983245;28;20045;-86
2022/04/07 10:04:08;;;;;;;14.07;2.70;;;10.20;99.90;;;;;;4998110;28;20042;-87
2022/04/07 10:06:34;;;;;;;10.02;2.08;;;10.30;99.90;;;;;;4986166;28;20042;-87
2022/04/07 10:09:02;;;;;;;10.95;2.35;;;10.40;99.90;;;;;;4982712;28;20457;-86
2022/04/07 10:11:31;;;;;;;11.48;2.17;;;10.40;99.90;;;;;;4998520;28;20123;-86
2022/04/07 10:13:58;;;;;;;12.52;2.28;;;10.30;99.90;;;;;;5013891;28;20037;-87
2022/04/07 10:16:25;;;;;;;9.18;1.88;;;10.10;99.90;;;;;;4995042;28;20107;-87
2022/04/07 10:19:05;;;;;;;10.75;2.42;;;9.90;99.90;;;;;;5027692;28;20044;-87
2022/04/07 10:21:42;;;;;;;12.13;2.40;;;10.00;99.90;;;;;;5018232;28;20183;-86
2022/04/07 10:24:23;;;;;;;12.60;2.45;;;10.30;99.90;;;;;;5015309;28;20049;-86
2022/04/07 10:26:50;;;;;;;12.07;2.30;;;10.60;99.90;;;;;;5014991;28;20375;-85
2022/04/07 10:29:21;;;;;;;11.07;2.40;;;10.80;99.90;;;;;;5006749;28;20052;-87
2022/04/07 10:32:12;;;;;;;11.07;2.35;;;10.70;99.90;;;;;;5017745;28;20052;-87
2022/04/07 10:34:42;;;;;;;9.70;1.85;;;10.40;99.90;;;;;;5034196;28;20070;-88
2022/04/07 10:37:11;;;;;;;6.95;1.88;;;10.10;99.90;;;;;;5002254;28;20064;-86
2022/04/07 10:39:41;;;;;;;7.78;1.90;;;9.60;99.90;;;;;;5001256;28;20084;-86
2022/04/07 10:42:09;;;;;;;9.40;1.80;;;9.50;99.90;;;;;;4985116;28;20102;-86
2022/04/07 10:44:36;;;;;;;7.75;2.05;;;9.40;99.90;;;;;;5017957;28;20053;-85
2022/04/07 10:47:08;;;;;;;8.10;1.80;;;9.40;99.90;;;;;;5001357;28;20045;-87
2022/04/07 10:49:34;;;;;;;12.02;2.30;;;9.40;99.90;;;;;;5017427;28;20110;-86
2022/04/07 10:52:06;;;;;;;10.25;2.25;;;9.30;99.90;;;;;;5016482;28;20037;-87
2022/04/07 10:54:32;;;;;;;14.25;2.63;;;9.30;99.90;;;;;;4990238;28;20086;-86
2022/04/07 10:57:01;;;;;;;11.40;2.10;;;9.30;99.90;;;;;;5017671;28;20048;-85
2022/04/07 10:59:31;;;;;;;13.63;2.55;;;8.80;99.90;;;;;;4985061;28;20632;-85
2022/04/07 11:02:04;;;;;;;14.00;2.90;;;9.20;99.90;;;;;;5033413;28;20083;-85
2022/04/07 11:04:32;;;;;;;12.13;2.55;;;9.00;99.90;;;;;;5017137;28;20120;-87
2022/04/07 11:07:16;;;;;;;11.07;2.20;;;8.90;99.90;;;;;;5017102;28;20460;-86
2022/04/07 11:10:10;;;;;;;10.38;2.33;;;8.80;99.90;;;;;;5033781;28;20462;-85
2022/04/07 11:12:43;;;;;;;10.45;2.45;;;8.80;99.90;;;;;;5017077;28;20505;-85
2022/04/07 11:15:15;;;;;;;;;;;9.00;99.90;;;;;;4999577;28;20077;-86
2022/04/07 11:17:41;;;;;;;10.75;2.30;;;9.20;99.90;;;;;;5029858;28;19921;-85
2022/04/07 11:20:18;;;;;;;11.65;2.47;;;9.20;99.90;;;;;;5025441;28;20064;-86
2022/04/07 11:22:56;;;;;;;14.60;3.13;;;9.40;99.90;;;;;;5021001;28;20037;-86
2022/04/07 11:25:34;;;;;;;13.25;2.65;;;9.40;99.90;;;;;;5014298;28;20052;-86
2022/04/07 11:28:18;;;;;;;11.60;2.38;;;9.70;99.90;;;;;;5005081;28;20449;-87
2022/04/07 11:30:51;;;;;;;12.82;2.80;;;10.00;99.90;;;;;;5013492;28;20613;-86
2022/04/07 11:33:28;;;;;;;13.23;2.83;;;10.20;99.90;;;;;;5000112;28;20982;-87
2022/04/07 11:36:00;;;;;;;13.48;3.25;;;10.40;99.90;;;;;;5010031;28;20112;-87
2022/04/07 11:38:26;;;;;;;13.77;2.75;;;10.60;99.90;;;;;;5007401;28;20053;-88
2022/04/07 11:41:06;;;;;;;15.35;2.75;;;11.30;99.90;;;;;;5014184;28;20037;-86
2022/04/07 11:43:33;;;;;;;13.57;3.17;;;10.80;99.90;;;;;;4997602;28;20506;-88
2022/04/07 11:45:59;;;;;;;13.63;2.83;;;10.60;99.90;;;;;;4987274;28;20112;-87
2022/04/07 11:48:31;;;;;;;13.77;3.13;;;10.30;99.90;;;;;;5011768;28;20042;-86
2022/04/07 11:51:01;;;;;;;10.73;2.45;;;10.20;99.90;;;;;;5012894;28;20049;-86
2022/04/07 11:53:30;;;;;;;13.50;2.92;;;10.10;99.90;;;;;;4993235;28;20554;-86
2022/04/07 11:56:11;;;;;;;12.65;3.03;;;10.20;99.90;;;;;;5018927;28;20457;-86
2022/04/07 11:58:37;;;;;;;12.82;2.85;;;10.30;99.90;;;;;;4996548;28;20092;-87
2022/04/07 12:01:11;;;;;;;13.82;2.75;;;10.30;99.90;;;;;;4993073;28;20049;-86
2022/04/07 12:03:38;;;;;;;15.00;3.15;;;10.30;99.90;;;;;;4994538;28;20049;-87
2022/04/07 12:06:04;;;;;;;13.30;2.70;;;10.40;99.90;;;;;;4980240;28;20521;-86
2022/04/07 12:08:31;;;;;;;13.57;2.63;;;10.40;99.90;;;;;;4997143;28;20037;-86
2022/04/07 12:10:57;;;;;;;12.40;2.70;;;10.40;99.90;;;;;;5012197;28;20041;-86
2022/04/07 12:13:23;;;;;;;10.65;2.50;;;10.50;99.90;;;;;;5029204;28;20069;-86
2022/04/07 12:15:49;;;;;;;10.48;2.30;;;10.50;99.90;;;;;;5010811;28;20088;-85
2022/04/07 12:18:25;;;;;;;13.82;2.78;;;10.50;99.90;;;;;;5028886;28;20469;-87
2022/04/07 12:20:59;;;;;;;11.90;2.75;;;10.60;99.90;;;;;;5029444;28;20050;-88
2022/04/07 12:23:26;;;;;;;11.38;2.50;;;10.70;99.90;;;;;;5015349;28;20060;-85
2022/04/07 12:25:59;;;;;;;13.30;2.60;;;10.70;99.90;;;;;;5012414;28;20077;-86
2022/04/07 12:28:32;;;;;;;13.82;2.45;;;10.70;99.90;;;;;;5029123;28;20049;-86
2022/04/07 12:30:58;;;;;;;14.93;2.55;;;10.70;99.90;;;;;;5021505;28;20041;-86
2022/04/07 12:33:43;;;;;;;11.63;2.67;;;10.50;99.90;;;;;;5015811;28;20505;-87
2022/04/07 12:36:14;;;;;;;13.32;3.15;;;10.30;99.90;;;;;;5011635;28;20068;-87
2022/04/07 12:39:01;;;;;;;16.20;3.05;;;10.10;99.90;;;;;;4992965;28;20034;-86
2022/04/07 12:41:38;;;;;;;8.82;1.80;;;9.50;99.90;;;;;;5009103;28;20046;-85
2022/04/07 12:44:05;;;;;;;7.68;2.47;;;8.50;99.90;;;;;;5008794;28;20049;-86
2022/04/07 12:46:55;;;;;;;8.25;2.17;;;8.20;99.90;;;;;;4993285;28;20060;-85
2022/04/07 12:49:32;;;;;;;7.97;2.28;;;8.40;99.90;;;;;;5008182;28;20495;-86
2022/04/07 12:52:14;;;;;;;10.20;2.03;;;8.70;99.90;;;;;;5000436;28;20120;-85